Airfield :







YOU CAN JOIN US ON...

 
LOGIN :

Register | Disclaimer

   EN    FR    IT 

 









Legend :    VFR   Marginal VFR   IFR   Intensive IFR   Very Intensive IFR
Visi :
Ceiling :
>= 8 km
>= 3000ft
5 to 8 km
1000 to 3000 ft
1500m to 5 km
500 to 1000 ft
800 to 1500m
200 to 500 ft
< 800m
< 200 ft
Symbols :   Thunderstorms  Fog  Heavy snow  Heavy precipitations  Wind > 20 kt






- Airport Elevation : 534 ft
- IATA code : PQI


KPQI - Northern Maine Regional Arpt At Presque Isle

CURRENT METAR :
  • 012056Z AUTO 01010KT 10SM OVC012 03/01 A2986 RMK AO2 UPB16E27RAB29E41 SLP143 P0000 60000 T00280006 56011

EXPIRED METARs :
  • 011956Z AUTO 02008KT 10SM OVC012 03/01 A2987 RMK AO2 SLP145 T00280011
  • 011935Z AUTO 01007KT 10SM OVC010 03/01 A2987 RMK AO2 CIG 007V013
  • 011856Z AUTO 36009KT 10SM OVC008 03/01 A2988 RMK AO2 RAE18UPB18E42 CIG 006V012 SLP149 P0000 T00280011

TAF KPQI
Valid from the 01 at 18:00 until the 02 at 18:00 UTC


011720Z 0118/0218 02007KT 3SM -SN OVC008
FM020100 36006KT P6SM VCSH OVC005
FM020400 36007KT 3SM -RASN OVC006
FM020500 36007KT 3SM -RA OVC005
FM021700 03009KT 3SM -RA OVC010 WS020/10040KT



MET'MAP, your aeronautical weather chart ! - Copyright ORBIFLY December 2007 - Disclaimer

ORBIFLY MET'MAP TEAM :

Programming & Development : Alexandra Zaïnal
Concept & original design : Baudouin d'Aumeries
Assistance for programming : Marc-Olivier Méhu
Technical & hardware support : Manuel Goepfert

Contact : metmap@orbifly.com




SOURCES & CREDITS :

   NOAA